Time,TemperatureF,DewpointF,PressureIn,WindDirection,WindDirectionDegrees,WindSpeedMPH,WindSpeedGustMPH,Humidity,HourlyPrecipIn,Conditions,Clouds,dailyrainin,SoftwareType,DateUTC
2013-02-01 00:03:00,41.0,21.0,-100.00,WSW,250,10.0,20.0,45,-99.99,,,-99.99,,2013-02-01 05:03:00,
2013-02-01 00:12:00,41.0,21.0,-100.00,West,260,8.0,16.0,46,-99.99,,,-99.99,,2013-02-01 05:12:00,
2013-02-01 00:22:00,40.0,22.0,-100.00,West,265,8.0,18.0,47,-99.99,,,-99.99,,2013-02-01 05:22:00,
2013-02-01 00:32:00,40.0,22.0,-100.00,WNW,285,10.0,18.0,47,-99.99,,,-99.99,,2013-02-01 05:32:00,
2013-02-01 00:42:00,40.0,22.0,-100.00,WSW,255,9.0,19.0,48,-99.99,,,-99.99,,2013-02-01 05:42:00,
2013-02-01 00:52:00,40.0,22.0,-100.00,West,260,8.0,21.0,48,-99.99,,,-99.99,,2013-02-01 05:52:00,
2013-02-01 01:02:00,40.0,22.0,-100.00,WSW,250,8.0,12.0,49,-99.99,,,-99.99,,2013-02-01 06:02:00,
2013-02-01 01:12:00,40.0,22.0,-100.00,WSW,255,9.0,16.0,50,-99.99,,,-99.99,,2013-02-01 06:12:00,
2013-02-01 01:22:00,40.0,23.0,-100.00,West,265,11.0,17.0,50,-99.99,,,-99.99,,2013-02-01 06:22:00,
2013-02-01 01:32:00,40.0,23.0,-100.00,West,270,9.0,19.0,50,-99.99,,,-99.99,,2013-02-01 06:32:00,
2013-02-01 01:42:00,40.0,23.0,-100.00,West,270,11.0,19.0,51,-99.99,,,-99.99,,2013-02-01 06:42:00,
2013-02-01 01:52:00,40.0,23.0,-100.00,West,275,14.0,24.0,51,-99.99,,,-99.99,,2013-02-01 06:52:00,
2013-02-01 02:02:00,40.0,23.0,-100.00,West,260,15.0,23.0,51,-99.99,,,-99.99,,2013-02-01 07:02:00,
2013-02-01 02:12:00,40.0,23.0,-100.00,West,265,14.0,23.0,51,-99.99,,,-99.99,,2013-02-01 07:12:00,
2013-02-01 02:22:00,39.0,23.0,-100.00,West,260,9.0,19.0,52,-99.99,,,-99.99,,2013-02-01 07:22:00,
2013-02-01 02:32:00,39.0,23.0,-100.00,West,260,8.0,18.0,52,-99.99,,,-99.99,,2013-02-01 07:32:00,
2013-02-01 02:42:00,39.0,24.0,-100.00,West,265,11.0,20.0,53,-99.99,,,-99.99,,2013-02-01 07:42:00,
2013-02-01 02:52:00,39.0,24.0,-100.00,West,275,11.0,15.0,53,-99.99,,,-99.99,,2013-02-01 07:52:00,
2013-02-01 03:01:00,39.0,24.0,-100.00,WSW,255,9.0,19.0,53,-99.99,,,-99.99,,2013-02-01 08:01:00,
2013-02-01 03:11:00,39.0,24.0,-100.00,West,260,14.0,21.0,53,-99.99,,,-99.99,,2013-02-01 08:11:00,
2013-02-01 03:21:00,40.0,24.0,-100.00,West,260,11.0,21.0,53,-99.99,,,-99.99,,2013-02-01 08:21:00,
2013-02-01 03:32:00,40.0,24.0,-100.00,West,275,13.0,26.0,53,-99.99,,,-99.99,,2013-02-01 08:32:00,
2013-02-01 03:42:00,40.0,24.0,-100.00,West,265,11.0,22.0,53,-99.99,,,-99.99,,2013-02-01 08:42:00,
2013-02-01 03:52:00,40.0,24.0,-100.00,WSW,255,11.0,23.0,53,-99.99,,,-99.99,,2013-02-01 08:52:00,
2013-02-01 04:02:00,40.0,24.0,-100.00,WSW,255,11.0,25.0,53,-99.99,,,-99.99,,2013-02-01 09:02:00,
2013-02-01 04:11:00,40.0,24.0,-100.00,WSW,240,12.0,20.0,53,-99.99,,,-99.99,,2013-02-01 09:11:00,
2013-02-01 04:21:00,40.0,24.0,-100.00,West,280,12.0,24.0,53,-99.99,,,-99.99,,2013-02-01 09:21:00,
2013-02-01 04:32:00,40.0,24.0,-100.00,WSW,240,10.0,20.0,53,-99.99,,,-99.99,,2013-02-01 09:32:00,
2013-02-01 04:42:00,40.0,25.0,-100.00,WSW,255,12.0,21.0,54,-99.99,,,-99.99,,2013-02-01 09:42:00,
2013-02-01 04:51:00,40.0,25.0,-100.00,West,260,13.0,24.0,54,-99.99,,,-99.99,,2013-02-01 09:51:00,
2013-02-01 05:01:00,40.0,25.0,-100.00,West,270,11.0,33.0,54,-99.99,,,-99.99,,2013-02-01 10:01:00,
2013-02-01 05:11:00,40.0,25.0,-100.00,West,260,13.0,26.0,54,-99.99,,,-99.99,,2013-02-01 10:11:00,
2013-02-01 05:21:00,40.0,25.0,-100.00,West,260,15.0,29.0,54,-99.99,,,-99.99,,2013-02-01 10:21:00,
2013-02-01 05:32:00,40.0,25.0,-100.00,West,260,11.0,26.0,55,-99.99,,,-99.99,,2013-02-01 10:32:00,
2013-02-01 05:43:00,40.0,25.0,-100.00,West,265,11.0,30.0,55,-99.99,,,-99.99,,2013-02-01 10:43:00,
2013-02-01 05:53:00,40.0,25.0,-100.00,WNW,290,11.0,24.0,55,-99.99,,,-99.99,,2013-02-01 10:53:00,
2013-02-01 06:02:00,40.0,25.0,-100.00,WSW,250,11.0,24.0,55,-99.99,,,-99.99,,2013-02-01 11:02:00,
2013-02-01 06:11:00,40.0,25.0,-100.00,West,260,14.0,24.0,55,-99.99,,,-99.99,,2013-02-01 11:11:00,
2013-02-01 06:22:00,40.0,25.0,-100.00,West,270,14.0,21.0,56,-99.99,,,-99.99,,2013-02-01 11:22:00,
2013-02-01 06:32:00,40.0,25.0,-100.00,WSW,255,12.0,20.0,56,-99.99,,,-99.99,,2013-02-01 11:32:00,
2013-02-01 06:42:00,39.0,25.0,-100.00,WNW,285,5.0,16.0,57,-99.99,,,-99.99,,2013-02-01 11:42:00,
2013-02-01 06:53:00,39.0,26.0,-100.00,NW,310,1.0,12.0,58,-99.99,,,-99.99,,2013-02-01 11:53:00,
2013-02-01 07:03:00,39.0,26.0,-100.00,WNW,295,4.0,7.0,58,-99.99,,,-99.99,,2013-02-01 12:03:00,
2013-02-01 07:12:00,39.0,26.0,-100.00,NW,325,5.0,9.0,59,-99.99,,,-99.99,,2013-02-01 12:12:00,
2013-02-01 07:23:00,39.0,26.0,-100.00,NW,325,5.0,9.0,59,-99.99,,,-99.99,,2013-02-01 12:23:00,
2013-02-01 07:32:00,38.0,26.0,-100.00,NNW,330,4.0,9.0,61,-99.99,,,-99.99,,2013-02-01 12:32:00,
2013-02-01 07:42:00,38.0,26.0,-100.00,North,10,1.0,6.0,61,-99.99,,,-99.99,,2013-02-01 12:42:00,
2013-02-01 07:52:00,38.0,26.0,-100.00,North,350,1.0,7.0,62,-99.99,,,-99.99,,2013-02-01 12:52:00,
2013-02-01 08:02:00,39.0,23.0,-100.00,North,0,4.0,16.0,52,-99.99,,,-99.99,,2013-02-01 13:02:00,
2013-02-01 08:12:00,39.0,18.0,-100.00,NNW,340,6.0,16.0,42,-99.99,,,-99.99,,2013-02-01 13:12:00,
2013-02-01 08:22:00,39.0,16.0,-100.00,NW,315,7.0,19.0,38,-99.99,,,-99.99,,2013-02-01 13:22:00,
2013-02-01 08:33:00,39.0,14.0,-100.00,WNW,295,6.0,20.0,36,-99.99,,,-99.99,,2013-02-01 13:33:00,
2013-02-01 08:42:00,39.0,14.0,-100.00,West,275,6.0,16.0,35,-99.99,,,-99.99,,2013-02-01 13:42:00,
2013-02-01 08:53:00,39.0,12.0,-100.00,NW,305,6.0,17.0,33,-99.99,,,-99.99,,2013-02-01 13:53:00,
2013-02-01 09:03:00,38.0,12.0,-100.00,NW,325,7.0,14.0,33,-99.99,,,-99.99,,2013-02-01 14:03:00,
2013-02-01 09:12:00,39.0,12.0,-100.00,North,0,4.0,11.0,33,-99.99,,,-99.99,,2013-02-01 14:12:00,
2013-02-01 09:22:00,39.0,12.0,-100.00,NW,320,5.0,18.0,33,-99.99,,,-99.99,,2013-02-01 14:22:00,
2013-02-01 09:32:00,40.0,12.0,-100.00,WNW,290,2.0,13.0,32,-99.99,,,-99.99,,2013-02-01 14:32:00,
2013-02-01 09:42:00,40.0,12.0,-100.00,NW,310,7.0,11.0,31,-99.99,,,-99.99,,2013-02-01 14:42:00,
2013-02-01 09:52:00,42.0,13.0,-100.00,North,10,2.0,7.0,30,-99.99,,,-99.99,,2013-02-01 14:52:00,
2013-02-01 10:03:00,42.0,12.0,-100.00,ENE,75,1.0,6.0,29,-99.99,,,-99.99,,2013-02-01 15:03:00,
2013-02-01 10:12:00,42.0,12.0,-100.00,ENE,70,2.0,9.0,30,-99.99,,,-99.99,,2013-02-01 15:12:00,
2013-02-01 10:22:00,42.0,14.0,-100.00,East,90,1.0,9.0,31,-99.99,,,-99.99,,2013-02-01 15:22:00,
2013-02-01 10:33:00,43.0,14.0,-100.00,East,90,2.0,9.0,30,-99.99,,,-99.99,,2013-02-01 15:33:00,
2013-02-01 10:42:00,42.0,13.0,-100.00,SE,130,4.0,8.0,30,-99.99,,,-99.99,,2013-02-01 15:42:00,
2013-02-01 10:52:00,41.0,12.0,-100.00,South,185,4.0,8.0,30,-99.99,,,-99.99,,2013-02-01 15:52:00,
2013-02-01 11:03:00,44.0,14.0,-100.00,North,350,1.0,4.0,30,-99.99,,,-99.99,,2013-02-01 16:03:00,
2013-02-01 11:12:00,44.0,14.0,-100.00,NNW,345,1.0,6.0,29,-99.99,,,-99.99,,2013-02-01 16:12:00,
2013-02-01 11:22:00,44.0,13.0,-100.00,West,265,2.0,6.0,28,-99.99,,,-99.99,,2013-02-01 16:22:00,
2013-02-01 11:33:00,46.0,15.0,-100.00,East,80,1.0,6.0,28,-99.99,,,-99.99,,2013-02-01 16:33:00,
2013-02-01 11:43:00,42.0,11.0,-100.00,SE,130,6.0,19.0,28,-99.99,,,-99.99,,2013-02-01 16:43:00,
2013-02-01 11:52:00,43.0,12.0,-100.00,ESE,110,5.0,14.0,28,-99.99,,,-99.99,,2013-02-01 16:52:00,
2013-02-01 12:03:00,43.0,11.0,-100.00,SE,125,4.0,12.0,27,-99.99,,,-99.99,,2013-02-01 17:03:00,
2013-02-01 12:12:00,43.0,13.0,-100.00,East,95,2.0,14.0,29,-99.99,,,-99.99,,2013-02-01 17:12:00,
2013-02-01 12:22:00,44.0,14.0,-100.00,East,100,6.0,14.0,29,-99.99,,,-99.99,,2013-02-01 17:22:00,
2013-02-01 12:32:00,45.0,15.0,-100.00,East,90,4.0,10.0,29,-99.99,,,-99.99,,2013-02-01 17:32:00,
2013-02-01 12:42:00,47.0,16.0,-100.00,East,90,1.0,11.0,29,-99.99,,,-99.99,,2013-02-01 17:42:00,
2013-02-01 12:52:00,45.0,15.0,-100.00,East,90,2.0,10.0,29,-99.99,,,-99.99,,2013-02-01 17:52:00,
2013-02-01 13:03:00,46.0,15.0,-100.00,East,95,2.0,9.0,28,-99.99,,,-99.99,,2013-02-01 18:03:00,
2013-02-01 13:12:00,47.0,16.0,-100.00,East,80,4.0,11.0,28,-99.99,,,-99.99,,2013-02-01 18:12:00,
2013-02-01 13:23:00,46.0,15.0,-100.00,SE,135,4.0,11.0,28,-99.99,,,-99.99,,2013-02-01 18:23:00,
2013-02-01 13:32:00,46.0,15.0,-100.00,ENE,70,4.0,15.0,28,-99.99,,,-99.99,,2013-02-01 18:32:00,
2013-02-01 13:42:00,45.0,15.0,-100.00,East,90,1.0,9.0,29,-99.99,,,-99.99,,2013-02-01 18:42:00,
2013-02-01 13:52:00,46.0,15.0,-100.00,SE,125,2.0,6.0,28,-99.99,,,-99.99,,2013-02-01 18:52:00,
2013-02-01 14:03:00,46.0,15.0,-100.00,NW,320,1.0,6.0,28,-99.99,,,-99.99,,2013-02-01 19:03:00,
2013-02-01 14:12:00,46.0,15.0,-100.00,North,0,1.0,9.0,28,-99.99,,,-99.99,,2013-02-01 19:12:00,
2013-02-01 14:22:00,47.0,15.0,-100.00,SW,215,1.0,9.0,27,-99.99,,,-99.99,,2013-02-01 19:22:00,
2013-02-01 14:32:00,45.0,13.0,-100.00,East,100,1.0,6.0,27,-99.99,,,-99.99,,2013-02-01 19:32:00,
2013-02-01 14:42:00,45.0,13.0,-100.00,SE,145,1.0,10.0,27,-99.99,,,-99.99,,2013-02-01 19:42:00,
2013-02-01 14:52:00,45.0,12.0,-100.00,SW,220,4.0,13.0,26,-99.99,,,-99.99,,2013-02-01 19:52:00,
2013-02-01 15:02:00,45.0,13.0,-100.00,ENE,75,5.0,12.0,27,-99.99,,,-99.99,,2013-02-01 20:02:00,
2013-02-01 15:11:00,44.0,12.0,-100.00,South,170,2.0,7.0,27,-99.99,,,-99.99,,2013-02-01 20:11:00,
2013-02-01 15:22:00,46.0,14.0,-100.00,East,80,4.0,9.0,27,-99.99,,,-99.99,,2013-02-01 20:22:00,
2013-02-01 15:32:00,46.0,14.0,-100.00,East,90,4.0,10.0,27,-99.99,,,-99.99,,2013-02-01 20:32:00,
2013-02-01 15:42:00,46.0,14.0,-100.00,ESE,115,2.0,9.0,27,-99.99,,,-99.99,,2013-02-01 20:42:00,
2013-02-01 15:52:00,46.0,14.0,-100.00,East,90,4.0,11.0,27,-99.99,,,-99.99,,2013-02-01 20:52:00,
2013-02-01 16:02:00,45.0,13.0,-100.00,SE,130,6.0,11.0,27,-99.99,,,-99.99,,2013-02-01 21:02:00,
2013-02-01 16:12:00,46.0,14.0,-100.00,ESE,115,1.0,11.0,27,-99.99,,,-99.99,,2013-02-01 21:12:00,
2013-02-01 16:22:00,46.0,14.0,-100.00,SE,135,3.0,8.0,27,-99.99,,,-99.99,,2013-02-01 21:22:00,
2013-02-01 16:32:00,45.0,14.0,-100.00,ESE,105,2.0,10.0,28,-99.99,,,-99.99,,2013-02-01 21:32:00,
2013-02-01 16:42:00,46.0,14.0,-100.00,East,90,2.0,9.0,27,-99.99,,,-99.99,,2013-02-01 21:42:00,
2013-02-01 16:52:00,46.0,14.0,-100.00,East,80,1.0,6.0,27,-99.99,,,-99.99,,2013-02-01 21:52:00,
2013-02-01 17:03:00,45.0,13.0,-100.00,East,90,1.0,9.0,27,-99.99,,,-99.99,,2013-02-01 22:03:00,
2013-02-01 17:11:00,45.0,13.0,-100.00,East,85,5.0,12.0,27,-99.99,,,-99.99,,2013-02-01 22:11:00,
2013-02-01 17:22:00,44.0,12.0,-100.00,SE,140,6.0,10.0,27,-99.99,,,-99.99,,2013-02-01 22:22:00,
2013-02-01 17:32:00,43.0,12.0,-100.00,SE,130,2.0,11.0,28,-99.99,,,-99.99,,2013-02-01 22:32:00,
2013-02-01 17:42:00,42.0,12.0,-100.00,East,100,3.0,10.0,28,-99.99,,,-99.99,,2013-02-01 22:42:00,
2013-02-01 17:52:00,42.0,12.0,-100.00,SE,125,1.0,9.0,28,-99.99,,,-99.99,,2013-02-01 22:52:00,
2013-02-01 18:02:00,41.0,11.0,-100.00,SE,130,4.0,10.0,28,-99.99,,,-99.99,,2013-02-01 23:02:00,
2013-02-01 18:11:00,41.0,11.0,-100.00,ESE,105,4.0,10.0,29,-99.99,,,-99.99,,2013-02-01 23:11:00,
2013-02-01 18:22:00,40.0,10.0,-100.00,East,90,2.0,8.0,29,-99.99,,,-99.99,,2013-02-01 23:22:00,
2013-02-01 18:32:00,39.0,10.0,-100.00,East,80,2.0,7.0,30,-99.99,,,-99.99,,2013-02-01 23:32:00,
2013-02-01 18:42:00,39.0,10.0,-100.00,East,95,3.0,6.0,30,-99.99,,,-99.99,,2013-02-01 23:42:00,
2013-02-01 18:52:00,38.0,9.0,-100.00,ESE,115,1.0,6.0,30,-99.99,,,-99.99,,2013-02-01 23:52:00,
2013-02-01 19:02:00,37.0,9.0,-100.00,East,95,1.0,6.0,30,-99.99,,,-99.99,,2013-02-02 00:02:00,
2013-02-01 19:11:00,37.0,10.0,-100.00,ESE,120,1.0,6.0,31,-99.99,,,-99.99,,2013-02-02 00:11:00,
2013-02-01 19:22:00,37.0,10.0,-100.00,ESE,115,1.0,5.0,32,-99.99,,,-99.99,,2013-02-02 00:22:00,
2013-02-01 19:32:00,36.0,9.0,-100.00,East,80,2.0,5.0,32,-99.99,,,-99.99,,2013-02-02 00:32:00,
2013-02-01 19:42:00,36.0,9.0,-100.00,East,85,3.0,6.0,32,-99.99,,,-99.99,,2013-02-02 00:42:00,
2013-02-01 19:52:00,36.0,9.0,-100.00,East,95,1.0,6.0,32,-99.99,,,-99.99,,2013-02-02 00:52:00,
2013-02-01 20:02:00,35.0,8.0,-100.00,East,85,3.0,5.0,32,-99.99,,,-99.99,,2013-02-02 01:02:00,
2013-02-01 20:11:00,35.0,8.0,-100.00,ESE,105,2.0,6.0,32,-99.99,,,-99.99,,2013-02-02 01:11:00,
2013-02-01 20:22:00,35.0,8.0,-100.00,East,95,2.0,4.0,32,-99.99,,,-99.99,,2013-02-02 01:22:00,
2013-02-01 20:32:00,35.0,8.0,-100.00,SE,135,1.0,6.0,33,-99.99,,,-99.99,,2013-02-02 01:32:00,
2013-02-01 20:42:00,34.0,8.0,-100.00,SE,130,1.0,5.0,33,-99.99,,,-99.99,,2013-02-02 01:42:00,
2013-02-01 20:52:00,33.0,7.0,-100.00,East,85,0.0,2.0,33,-99.99,,,-99.99,,2013-02-02 01:52:00,
2013-02-01 21:01:00,33.0,8.0,-100.00,SE,140,1.0,3.0,34,-99.99,,,-99.99,,2013-02-02 02:01:00,
2013-02-01 21:11:00,33.0,8.0,-100.00,SE,140,1.0,3.0,34,-99.99,,,-99.99,,2013-02-02 02:11:00,
2013-02-01 21:22:00,33.0,8.0,-100.00,East,95,0.0,4.0,35,-99.99,,,-99.99,,2013-02-02 02:22:00,
2013-02-01 21:32:00,33.0,8.0,-100.00,East,95,0.0,4.0,35,-99.99,,,-99.99,,2013-02-02 02:32:00,
2013-02-01 21:42:00,33.0,8.0,-100.00,SE,140,1.0,3.0,35,-99.99,,,-99.99,,2013-02-02 02:42:00,
2013-02-01 21:52:00,32.0,8.0,-100.00,East,100,0.0,1.0,36,-99.99,,,-99.99,,2013-02-02 02:52:00,
2013-02-01 22:02:00,32.0,9.0,-100.00,SE,135,1.0,4.0,37,-99.99,,,-99.99,,2013-02-02 03:02:00,
2013-02-01 22:11:00,32.0,9.0,-100.00,SE,135,1.0,4.0,38,-99.99,,,-99.99,,2013-02-02 03:11:00,
2013-02-01 22:22:00,32.0,9.0,-100.00,SSW,205,1.0,4.0,38,-99.99,,,-99.99,,2013-02-02 03:22:00,
2013-02-01 22:32:00,31.0,10.0,-100.00,South,190,0.0,3.0,40,-99.99,,,-99.99,,2013-02-02 03:32:00,
2013-02-01 22:42:00,31.0,10.0,-100.00,SSW,200,1.0,2.0,41,-99.99,,,-99.99,,2013-02-02 03:42:00,
2013-02-01 22:52:00,31.0,11.0,-100.00,SSW,210,1.0,1.0,43,-99.99,,,-99.99,,2013-02-02 03:52:00,
2013-02-01 23:02:00,30.0,11.0,-100.00,SW,230,1.0,1.0,44,-99.99,,,-99.99,,2013-02-02 04:02:00,
2013-02-01 23:11:00,30.0,11.0,-100.00,SW,220,0.0,1.0,45,-99.99,,,-99.99,,2013-02-02 04:11:00,
2013-02-01 23:22:00,30.0,11.0,-100.00,SE,145,0.0,1.0,44,-99.99,,,-99.99,,2013-02-02 04:22:00,
2013-02-01 23:32:00,30.0,11.0,-100.00,SE,130,1.0,2.0,44,-99.99,,,-99.99,,2013-02-02 04:32:00,
2013-02-01 23:42:00,30.0,11.0,-100.00,SE,130,1.0,4.0,44,-99.99,,,-99.99,,2013-02-02 04:42:00,
2013-02-01 23:52:00,30.0,11.0,-100.00,SE,130,1.0,4.0,44,-99.99,,,-99.99,,2013-02-02 04:52:00,